createdAt,value
2019-04-21T00:02:59.640Z,44.60
2019-04-21T00:06:22.522Z,32.37
2019-04-21T00:09:44.024Z,33.67
2019-04-21T00:12:40.562Z,45.63
2019-04-21T00:15:38.681Z,40.63
2019-04-21T00:19:17.348Z,37.50
2019-04-21T00:22:34.328Z,34.20
2019-04-21T00:25:42.900Z,49.80
2019-04-21T00:29:05.036Z,31.77
2019-04-21T00:31:58.934Z,35.20
2019-04-21T00:35:02.477Z,32.80
2019-04-21T00:38:25.068Z,57.27
2019-04-21T00:41:29.871Z,29.77
2019-04-21T00:44:29.540Z,36.77
2019-04-21T00:47:46.290Z,30.77
2019-04-21T00:51:14.568Z,38.87
2019-04-21T00:54:09.790Z,29.47
2019-04-21T00:57:22.174Z,44.77
2019-04-21T01:03:35.518Z,46.70
2019-04-21T01:06:42.887Z,37.97
2019-04-21T01:09:47.091Z,45.20
2019-04-21T01:13:02.960Z,27.83
2019-04-21T01:16:06.830Z,41.13
2019-04-21T01:19:10.752Z,20.77
2019-04-21T01:22:03.089Z,33.93
2019-04-21T01:25:20.357Z,26.60
2019-04-21T01:28:35.960Z,24.73
2019-04-21T01:31:41.620Z,23.43
2019-04-21T01:35:01.195Z,27.17
2019-04-21T01:38:10.975Z,24.50
2019-04-21T01:41:19.851Z,27.23
2019-04-21T01:44:29.835Z,24.27
2019-04-21T01:47:26.205Z,23.10
2019-04-21T01:50:36.228Z,24.10
2019-04-21T01:54:04.060Z,31.27
2019-04-21T01:57:12.376Z,35.10
2019-04-21T02:00:13.332Z,29.23
2019-04-21T02:03:52.850Z,43.57
2019-04-21T02:06:45.623Z,28.27
2019-04-21T02:09:51.212Z,45.27
2019-04-21T02:12:59.734Z,38.73
2019-04-21T02:16:11.339Z,44.17
2019-04-21T02:19:15.361Z,47.37
2019-04-21T02:25:52.613Z,34.37
2019-04-21T02:28:51.626Z,28.00
2019-04-21T02:32:01.890Z,36.40
2019-04-21T02:35:30.770Z,45.97
2019-04-21T02:38:17.506Z,41.53
2019-04-21T02:41:30.787Z,36.47
2019-04-21T02:50:45.187Z,30.63
2019-04-21T03:00:25.103Z,36.57
2019-04-21T03:03:42.684Z,33.07
2019-04-21T03:07:24.995Z,46.10
2019-04-21T03:13:54.846Z,31.13
2019-04-21T03:16:47.224Z,46.13
2019-04-21T03:23:23.821Z,30.50
2019-04-21T03:29:28.192Z,32.33
2019-04-21T03:36:12.829Z,37.73
2019-04-21T03:38:45.356Z,40.50
2019-04-21T03:42:11.330Z,34.33
2019-04-21T03:45:19.967Z,40.00
2019-04-21T03:48:17.204Z,32.03
2019-04-21T03:51:25.592Z,27.02
2019-04-21T03:54:41.754Z,26.50
2019-04-21T03:57:59.802Z,26.73
2019-04-21T04:01:16.469Z,26.45
2019-04-21T04:08:09.049Z,39.63
2019-04-21T04:11:19.701Z,31.00
2019-04-21T04:14:26.754Z,30.70
2019-04-21T04:23:57.889Z,25.40
2019-04-21T04:27:05.084Z,28.85
2019-04-21T04:30:25.331Z,33.92
2019-04-21T04:33:20.680Z,27.90
2019-04-21T04:36:33.372Z,27.35
2019-04-21T04:40:05.794Z,24.00
2019-04-21T04:43:12.722Z,35.15
2019-04-21T04:46:20.355Z,26.25
2019-04-21T04:49:43.225Z,38.55
2019-04-21T05:02:15.112Z,35.58
2019-04-21T05:05:28.363Z,27.48
2019-04-21T05:08:34.148Z,28.47
2019-04-21T05:11:41.648Z,25.95
2019-04-21T05:14:39.729Z,29.98
2019-04-21T05:17:49.205Z,30.70
2019-04-21T05:21:05.732Z,35.08
2019-04-21T05:23:54.017Z,26.00
2019-04-21T05:26:59.434Z,33.18
2019-04-21T05:30:17.437Z,24.47
2019-04-21T05:33:38.104Z,33.73
2019-04-21T05:37:04.034Z,26.63
2019-04-21T05:40:12.264Z,26.93
2019-04-21T05:43:28.522Z,23.03
2019-04-21T05:46:32.362Z,22.87
2019-04-21T05:49:49.907Z,36.33
2019-04-21T05:52:58.787Z,28.70
2019-04-21T05:56:17.433Z,24.00
2019-04-21T05:59:21.713Z,27.43
2019-04-21T06:02:29.281Z,25.50
2019-04-21T06:05:47.919Z,23.87
2019-04-21T06:08:49.710Z,28.83
2019-04-21T06:11:59.729Z,23.73
2019-04-21T06:15:08.346Z,25.10
2019-04-21T06:18:20.251Z,22.30
2019-04-21T06:21:25.149Z,22.67
2019-04-21T06:24:31.394Z,22.10
2019-04-21T06:27:37.919Z,22.80
2019-04-21T06:31:01.557Z,21.57
2019-04-21T06:33:58.840Z,23.50
2019-04-21T06:37:34.514Z,22.50
2019-04-21T06:40:28.754Z,20.63
2019-04-21T06:43:33.276Z,19.60
2019-04-21T06:46:55.142Z,20.40
2019-04-21T06:49:52.418Z,19.03
2019-04-21T06:53:11.962Z,18.07
2019-04-21T06:56:06.097Z,20.27
2019-04-21T06:59:09.645Z,21.87
2019-04-21T07:02:36.248Z,23.67
2019-04-21T07:05:34.601Z,20.57
2019-04-21T07:08:46.201Z,17.53
2019-04-21T07:11:48.972Z,17.30
2019-04-21T07:14:59.513Z,16.87
2019-04-21T07:18:04.424Z,16.10
2019-04-21T07:21:13.814Z,16.47
2019-04-21T07:24:30.463Z,15.03
2019-04-21T07:27:35.137Z,14.27
2019-04-21T07:30:59.448Z,15.87
2019-04-21T07:40:03.084Z,18.40
2019-04-21T07:43:05.592Z,15.40
2019-04-21T07:46:17.312Z,16.97
2019-04-21T07:49:53.107Z,17.47
2019-04-21T07:53:08.308Z,18.77
2019-04-21T07:55:58.856Z,18.30
2019-04-21T07:59:25.606Z,16.73
2019-04-21T08:02:29.415Z,15.00
2019-04-21T08:05:43.566Z,17.23
2019-04-21T08:08:46.712Z,17.70
2019-04-21T08:11:50.051Z,17.10
2019-04-21T08:15:13.888Z,20.40
2019-04-21T08:18:16.624Z,21.07
2019-04-21T08:21:20.776Z,16.77
2019-04-21T08:24:27.492Z,18.17
2019-04-21T08:27:45.797Z,18.73
2019-04-21T08:30:45.847Z,25.43
2019-04-21T08:37:05.462Z,16.43
2019-04-21T08:40:17.960Z,18.83
2019-04-21T08:43:27.508Z,18.30
2019-04-21T08:46:49.130Z,19.20
2019-04-21T08:49:35.064Z,19.37
2019-04-21T08:52:49.048Z,19.10
2019-04-21T08:56:10.588Z,19.40
2019-04-21T08:59:55.158Z,16.20
2019-04-21T09:02:58.991Z,19.27
2019-04-21T09:06:09.259Z,16.70
2019-04-21T09:12:22.936Z,23.23
2019-04-21T09:15:30.856Z,17.93
2019-04-21T09:18:37.447Z,18.57
2019-04-21T09:21:50.267Z,16.50
2019-04-21T09:24:55.746Z,20.30
2019-04-21T09:28:08.095Z,18.87
2019-04-21T09:30:58.522Z,21.23
2019-04-21T09:34:06.625Z,20.17
2019-04-21T09:37:25.818Z,16.43
2019-04-21T09:40:27.383Z,23.03
2019-04-21T09:43:37.722Z,22.07
2019-04-21T09:46:44.248Z,22.57
2019-04-21T09:49:47.312Z,19.70
2019-04-21T09:52:59.698Z,21.80
2019-04-21T09:56:05.470Z,19.73
2019-04-21T09:59:19.733Z,17.30
2019-04-21T10:02:33.078Z,15.33
2019-04-21T10:05:29.631Z,19.67
2019-04-21T10:08:36.633Z,16.90
2019-04-21T10:11:43.854Z,14.80
2019-04-21T10:14:51.816Z,18.13
2019-04-21T10:18:02.624Z,15.40
2019-04-21T10:21:13.217Z,17.63
2019-04-21T10:24:20.261Z,16.17
2019-04-21T10:27:27.400Z,19.17
2019-04-21T10:30:34.726Z,16.83
2019-04-21T10:33:44.256Z,18.80
2019-04-21T10:36:51.246Z,14.07
2019-04-21T10:39:58.107Z,15.40
2019-04-21T10:43:07.482Z,15.20
2019-04-21T10:46:13.455Z,17.43
2019-04-21T10:49:20.668Z,15.17
2019-04-21T10:52:46.951Z,16.40
2019-04-21T10:56:03.180Z,16.23
2019-04-21T10:59:02.525Z,15.90
2019-04-21T11:02:14.760Z,17.33
2019-04-21T11:05:22.724Z,17.67
2019-04-21T11:08:34.118Z,18.90
2019-04-21T11:11:39.708Z,21.73
2019-04-21T11:14:47.205Z,16.07
2019-04-21T11:17:55.462Z,16.27
2019-04-21T11:21:02.998Z,18.60
2019-04-21T11:24:10.305Z,17.07
2019-04-21T11:27:17.288Z,19.57
2019-04-21T11:30:25.521Z,15.83
2019-04-21T11:33:33.394Z,23.87
2019-04-21T11:36:40.605Z,16.00
2019-04-21T11:39:56.678Z,14.17
2019-04-21T11:42:56.159Z,16.60
2019-04-21T11:46:04.417Z,16.53
2019-04-21T11:49:12.605Z,15.57
2019-04-21T11:52:20.722Z,17.37
2019-04-21T11:55:34.323Z,19.40
2019-04-21T11:58:36.262Z,14.83
2019-04-21T12:01:43.543Z,16.40
2019-04-21T12:04:51.590Z,14.20
2019-04-21T12:08:00.010Z,12.27
2019-04-21T12:11:07.387Z,15.17
2019-04-21T12:14:14.403Z,13.33
2019-04-21T12:17:21.302Z,14.97
2019-04-21T12:20:28.594Z,12.77
2019-04-21T12:23:36.470Z,15.17
2019-04-21T12:26:44.483Z,16.70
2019-04-21T12:29:51.721Z,17.13
2019-04-21T12:33:12.066Z,15.10
2019-04-21T12:36:19.909Z,14.23
2019-04-21T12:39:27.085Z,15.17
2019-04-21T12:42:34.576Z,13.60
2019-04-21T12:45:42.009Z,13.40
2019-04-21T12:48:49.678Z,12.33
2019-04-21T12:51:57.588Z,13.77
2019-04-21T12:55:06.018Z,13.63
2019-04-21T12:58:13.104Z,12.07
2019-04-21T13:01:20.968Z,12.90
2019-04-21T13:04:28.037Z,13.23
2019-04-21T13:07:37.381Z,12.80
2019-04-21T13:10:44.382Z,15.20
2019-04-21T13:13:51.330Z,9.57
2019-04-21T13:16:59.358Z,11.50
2019-04-21T13:20:07.367Z,11.07
2019-04-21T13:23:14.269Z,12.90
2019-04-21T13:26:31.974Z,11.57
2019-04-21T13:29:30.258Z,11.10
2019-04-21T13:32:37.393Z,13.10
2019-04-21T13:35:44.812Z,10.73
2019-04-21T13:39:44.394Z,12.37
2019-04-21T13:42:36.357Z,12.27
2019-04-21T13:45:37.312Z,10.27
2019-04-21T13:48:44.575Z,8.33
2019-04-21T13:51:51.953Z,11.57
2019-04-21T13:54:58.858Z,12.40
2019-04-21T13:58:06.366Z,11.60
2019-04-21T14:01:13.817Z,11.63
2019-04-21T14:04:20.857Z,9.63
2019-04-21T14:07:28.030Z,13.57
2019-04-21T14:10:35.620Z,8.27
2019-04-21T14:13:42.630Z,7.97
2019-04-21T14:16:51.991Z,13.50
2019-04-21T14:19:59.414Z,10.23
2019-04-21T14:23:15.836Z,9.17
2019-04-21T14:26:16.132Z,9.93
2019-04-21T14:29:23.864Z,10.57
2019-04-21T14:32:31.830Z,9.70
2019-04-21T14:35:38.988Z,11.97
2019-04-21T14:38:46.946Z,15.83
2019-04-21T14:41:53.903Z,9.50
2019-04-21T14:45:00.885Z,14.63
2019-04-21T14:48:25.407Z,11.60
2019-04-21T14:51:41.085Z,14.03
2019-04-21T14:55:07.007Z,10.83
2019-04-21T14:58:14.936Z,12.43
2019-04-21T15:01:22.010Z,12.03
2019-04-21T15:04:28.814Z,12.00
2019-04-21T15:07:35.665Z,12.10
2019-04-21T15:10:43.039Z,11.80
2019-04-21T15:13:51.299Z,11.03
2019-04-21T15:16:58.691Z,12.80
2019-04-21T15:20:12.221Z,11.63
2019-04-21T15:23:14.991Z,12.70
2019-04-21T15:26:22.110Z,9.13
2019-04-21T15:29:29.123Z,11.43
2019-04-21T15:32:36.762Z,12.40
2019-04-21T15:35:44.885Z,11.40
2019-04-21T15:38:52.029Z,13.60
2019-04-21T15:41:58.976Z,12.33
2019-04-21T15:45:06.524Z,12.63
2019-04-21T15:48:14.024Z,12.57
2019-04-21T15:51:21.986Z,9.30
2019-04-21T15:54:29.694Z,8.87
2019-04-21T15:57:48.909Z,10.13
2019-04-21T16:01:00.694Z,9.17
2019-04-21T16:04:08.034Z,9.90
2019-04-21T16:07:16.113Z,10.40
2019-04-21T16:10:34.565Z,10.77
2019-04-21T16:13:32.010Z,14.50
2019-04-21T16:16:39.281Z,9.97
2019-04-21T16:19:46.198Z,11.90
2019-04-21T16:22:53.133Z,10.50
2019-04-21T16:25:59.956Z,15.07
2019-04-21T16:29:07.181Z,11.07
2019-04-21T16:32:17.252Z,11.93
2019-04-21T16:35:23.451Z,10.63
2019-04-21T16:38:31.444Z,10.27
2019-04-21T16:41:38.467Z,16.40
2019-04-21T16:44:45.384Z,12.20
2019-04-21T16:47:53.739Z,10.90
2019-04-21T16:51:01.645Z,11.73
2019-04-21T16:54:15.953Z,14.37
2019-04-21T16:57:41.908Z,10.80
2019-04-21T17:01:00.920Z,12.00
2019-04-21T17:04:04.450Z,10.83
2019-04-21T17:07:11.519Z,10.60
2019-04-21T17:10:18.420Z,9.93
2019-04-21T17:13:25.215Z,10.03
2019-04-21T17:19:46.640Z,9.77
2019-04-21T17:22:49.590Z,14.13
2019-04-21T17:25:57.159Z,14.67
2019-04-21T17:29:04.846Z,13.40
2019-04-21T17:32:12.225Z,9.97
2019-04-21T17:35:19.824Z,8.23
2019-04-21T17:38:28.031Z,14.73
2019-04-21T17:41:42.482Z,15.33
2019-04-21T17:44:43.599Z,12.80
2019-04-21T17:47:59.291Z,9.97
2019-04-21T17:51:19.151Z,11.47
2019-04-21T17:54:35.722Z,11.97
2019-04-21T17:57:58.122Z,10.90
2019-04-21T18:04:14.857Z,11.67
2019-04-21T18:07:27.333Z,10.07
2019-04-21T18:10:31.636Z,8.97
2019-04-21T18:13:26.730Z,9.87
2019-04-21T18:16:39.518Z,12.93
2019-04-21T18:19:45.768Z,12.40
2019-04-21T18:22:59.037Z,18.83
2019-04-21T18:26:19.193Z,14.40
2019-04-21T18:29:15.930Z,18.57
2019-04-21T18:32:28.079Z,14.53
2019-04-21T18:35:54.301Z,9.63
2019-04-21T18:39:34.380Z,10.07
2019-04-21T18:42:57.392Z,14.70
2019-04-21T18:46:19.126Z,10.37
2019-04-21T18:49:06.690Z,11.60
2019-04-21T18:52:42.779Z,10.67
2019-04-21T18:55:39.645Z,11.07
2019-04-21T18:58:42.573Z,13.80
2019-04-21T19:01:53.809Z,12.30
2019-04-21T19:05:04.449Z,13.97
2019-04-21T19:08:20.252Z,14.30
2019-04-21T19:11:28.198Z,9.73
2019-04-21T19:14:46.908Z,13.20
2019-04-21T19:18:24.093Z,12.23
2019-04-21T19:20:55.332Z,10.23
2019-04-21T19:24:18.342Z,11.83
2019-04-21T19:27:20.896Z,9.43
2019-04-21T19:33:30.100Z,10.50
2019-04-21T19:36:25.576Z,10.60
2019-04-21T19:39:42.857Z,10.20
2019-04-21T19:42:53.352Z,14.33
2019-04-21T19:46:09.394Z,13.57
2019-04-21T19:49:21.687Z,10.13
2019-04-21T19:52:20.309Z,11.63
2019-04-21T19:55:16.101Z,10.73
2019-04-21T19:58:27.500Z,9.37
2019-04-21T20:01:32.229Z,9.70
2019-04-21T20:04:46.977Z,9.43
2019-04-21T20:08:05.394Z,8.97
2019-04-21T20:11:18.141Z,6.27
2019-04-21T20:14:56.982Z,7.47
2019-04-21T20:17:34.146Z,9.03
2019-04-21T20:20:22.300Z,6.13
2019-04-21T20:23:32.702Z,8.33
2019-04-21T20:26:42.101Z,7.17
2019-04-21T20:30:02.302Z,7.97
2019-04-21T20:33:38.101Z,9.07
2019-04-21T20:36:29.627Z,13.57
2019-04-21T20:39:17.588Z,10.10
2019-04-21T20:42:36.457Z,10.57
2019-04-21T20:45:49.270Z,11.03
2019-04-21T20:48:52.432Z,11.77
2019-04-21T20:52:10.776Z,10.67
2019-04-21T20:55:07.220Z,10.93
2019-04-21T20:58:15.096Z,10.80
2019-04-21T21:04:31.748Z,10.53
2019-04-21T21:07:50.614Z,12.00
2019-04-21T21:10:53.757Z,10.37
2019-04-21T21:14:10.005Z,13.03
2019-04-21T21:17:29.670Z,14.07
2019-04-21T21:20:29.511Z,13.47
2019-04-21T21:23:38.615Z,8.83
2019-04-21T21:26:44.072Z,11.57
2019-04-21T21:29:50.159Z,10.27
2019-04-21T21:33:00.843Z,8.80
2019-04-21T21:36:12.399Z,7.23
2019-04-21T21:39:15.538Z,10.80
2019-04-21T21:42:08.083Z,9.17
2019-04-21T21:45:18.416Z,10.27
2019-04-21T21:48:40.818Z,9.03
2019-04-21T21:51:45.052Z,8.73
2019-04-21T21:54:41.780Z,9.73
2019-04-21T21:57:52.904Z,8.27
2019-04-21T22:01:02.214Z,8.60
2019-04-21T22:04:13.094Z,8.17
2019-04-21T22:07:17.052Z,11.60
2019-04-21T22:10:23.257Z,9.47
2019-04-21T22:13:40.545Z,8.80
2019-04-21T22:16:50.832Z,11.17
2019-04-21T22:20:12.211Z,10.07
2019-04-21T22:23:04.070Z,8.07
2019-04-21T22:26:05.466Z,12.07
2019-04-21T22:29:13.752Z,9.27
2019-04-21T22:32:25.442Z,9.83
2019-04-21T22:35:38.109Z,9.10
2019-04-21T22:38:50.971Z,10.97
2019-04-21T22:41:50.398Z,10.57
2019-04-21T22:44:54.708Z,8.70
2019-04-21T22:48:10.245Z,13.27
2019-04-21T22:51:20.644Z,10.03
2019-04-21T22:54:20.831Z,9.17
2019-04-21T22:57:32.358Z,8.87
2019-04-21T23:00:40.016Z,9.33
2019-04-21T23:03:50.128Z,13.10
2019-04-21T23:06:56.656Z,10.37
2019-04-21T23:10:01.610Z,12.87
2019-04-21T23:13:13.371Z,8.93
2019-04-21T23:16:22.809Z,9.03
2019-04-21T23:19:38.917Z,11.87
2019-04-21T23:23:01.961Z,9.70
2019-04-21T23:26:01.146Z,9.47
2019-04-21T23:29:13.945Z,13.07
2019-04-21T23:32:15.943Z,11.10
2019-04-21T23:35:18.643Z,10.50
2019-04-21T23:38:26.596Z,9.53
2019-04-21T23:41:32.733Z,9.03
2019-04-21T23:44:41.570Z,8.13
2019-04-21T23:47:53.782Z,12.80
2019-04-21T23:50:56.123Z,11.50
2019-04-21T23:53:59.519Z,9.90
2019-04-21T23:57:14.089Z,12.13
